Flight Track Log - Related Links

Times and Time Zones

All times are in EDT time to prevent confusion due to time zone crossing. See the UPS1132 flight status page for this flight to view local times or setup timezone preferences in your user account.

Time Position Orientation Groundspeed Altitude Reporting Facility
EDT Latitude Longitude Course Direction KTS MPH feet Rate Location/Type
Wed 06:07:32 AM 42.9280 -78.7460 225° Southwest 125 144 2,700  Level FlightAware ADS-B
Wed 06:08:02 AM 42.9130 -78.7620 218° Southwest 145 167 3,400 1,371 Climbing FlightAware ADS-B
Wed 06:08:07 AM 42.9100 -78.7630 194° South 153 176 3,500 2,200 Climbing FlightAware ADS-B
Wed 06:08:32 AM 42.8940 -78.7410 135° Southeast 228 262 4,500 2,550 Climbing FlightAware ADS-B
Wed 06:08:47 AM 42.8910 -78.7190 101° East 255 293 5,200 2,640 Climbing FlightAware ADS-B
Wed 06:08:57 AM 42.8910 -78.7020 90° East 267 307 5,600 2,700 Climbing FlightAware ADS-B
Wed 06:09:27 AM 42.8890 -78.6470 93° East 291 335 7,000 3,164 Climbing FlightAware ADS-B
Wed 06:09:52 AM 42.8900 -78.6020 88° East 299 344 8,500 3,323 Climbing FlightAware ADS-B
Wed 06:10:32 AM 42.8950 -78.5250 85° East 317 365 10,600 2,329 Climbing FlightAware ADS-B
Wed 06:11:17 AM 42.9040 -78.4290 83° East 375 432 11,800 1,867 Climbing FlightAware ADS-B
Wed 06:12:02 AM 42.9150 -78.3150 82° East 409 471 13,400 2,400 Climbing FlightAware ADS-B
Wed 06:12:42 AM 42.9250 -78.2100 83° East 418 481 15,200 2,550 Climbing FlightAware ADS-B
Wed 06:13:22 AM 42.9350 -78.1040 83° East 427 491 16,800 1,412 Climbing FlightAware ADS-B
Wed 06:14:07 AM 42.9470 -77.9850 82° East 426 490 17,200 282 Climbing FlightAware ADS-B
Wed 06:14:47 AM 42.9570 -77.8780 83° East 427 491 17,200  Level FlightAware ADS-B
Wed 06:15:32 AM 42.9690 -77.7600 82° East 426 490 17,200 -71 Level FlightAware ADS-B
Wed 06:16:12 AM 42.9790 -77.6520 83° East 430 495 17,100 -525 Descending FlightAware ADS-B
Wed 06:16:52 AM 42.9890 -77.5470 83° East 411 473 16,500 -1,200 Descending FlightAware ADS-B
Wed 06:17:32 AM 42.9980 -77.4480 83° East 395 455 15,500 -1,412 Descending FlightAware ADS-B
Wed 06:18:17 AM 43.0080 -77.3350 83° East 391 450 14,500 -1,333 Descending FlightAware ADS-B
Wed 06:19:02 AM 43.0180 -77.2270 83° East 385 443 13,500 -1,624 Descending FlightAware ADS-B
Wed 06:19:42 AM 43.0270 -77.1300 83° East 378 435 12,200 -1,765 Descending FlightAware ADS-B
Wed 06:20:27 AM 43.0370 -77.0250 83° East 365 420 11,000 -847 Descending FlightAware ADS-B
Wed 06:21:07 AM 43.0450 -76.9330 83° East 343 395 11,000  Level FlightAware ADS-B
Wed 06:21:37 AM 43.0500 -76.8720 84° East 365 420 11,000  Level FlightAware ADS-B
Wed 06:22:32 AM 43.0610 -76.7570 83° East 365 420 11,000  Level FlightAware ADS-B
Wed 06:23:12 AM 43.0680 -76.6790 83° East 365 420 11,000 -1,853 Level FlightAware ADS-B
Wed 06:23:40 AM 43.0747 -76.6047 83° East 298 343 8,900 -3,205 Descending Boston Center
Wed 06:24:40 AM 43.0828 -76.4972 84° East 281 323 6,300 -2,609 Descending Boston Center
Wed 06:25:35 AM 43.0903 -76.3983 84° East 282 325 3,900 -1,774 Descending Boston Center
Wed 06:26:35 AM 43.0997 -76.3050 82° East 241 277 2,900 -992 Descending Boston Center
Wed 06:27:36 AM 43.1042 -76.2342 85° East 171 197 1,900 -887 Descending Boston Center
Wed 06:28:30 AM 43.1078 -76.1858 84° East 116 133 1,200 -778 Descending Boston Center

Login

Don't have an account? Register now (free) for customized features, flight alerts, and more!